createdAt,value
2018-08-16T00:01:56.147Z,6.70
2018-08-16T00:04:24.419Z,7.00
2018-08-16T00:06:52.707Z,7.17
2018-08-16T00:09:20.977Z,7.40
2018-08-16T00:11:49.253Z,7.00
2018-08-16T00:14:18.554Z,26.30
2018-08-16T00:16:46.862Z,9.40
2018-08-16T00:19:15.131Z,8.17
2018-08-16T00:21:43.435Z,8.07
2018-08-16T00:24:11.868Z,7.10
2018-08-16T00:26:40.268Z,8.63
2018-08-16T00:29:08.586Z,11.77
2018-08-16T00:31:36.919Z,8.37
2018-08-16T00:34:05.234Z,7.93
2018-08-16T00:36:33.562Z,7.33
2018-08-16T00:39:02.123Z,7.30
2018-08-16T00:41:30.412Z,7.50
2018-08-16T00:43:58.828Z,7.40
2018-08-16T00:46:27.139Z,8.20
2018-08-16T00:48:55.383Z,7.70
2018-08-16T00:51:23.663Z,6.90
2018-08-16T00:53:51.947Z,6.50
2018-08-16T00:56:20.323Z,7.30
2018-08-16T00:58:48.591Z,6.70
2018-08-16T01:01:16.886Z,6.97
2018-08-16T01:03:48.530Z,8.77
2018-08-16T01:06:16.782Z,8.33
2018-08-16T01:08:45.062Z,7.33
2018-08-16T01:11:13.336Z,7.40
2018-08-16T01:13:41.635Z,8.20
2018-08-16T01:16:09.947Z,7.43
2018-08-16T01:18:38.215Z,7.63
2018-08-16T01:21:06.539Z,6.90
2018-08-16T01:23:34.937Z,7.30
2018-08-16T01:26:03.204Z,7.50
2018-08-16T01:28:31.482Z,7.17
2018-08-16T01:30:59.759Z,8.37
2018-08-16T01:33:28.062Z,6.53
2018-08-16T01:35:56.575Z,6.50
2018-08-16T01:38:24.872Z,7.43
2018-08-16T01:40:53.146Z,7.30
2018-08-16T01:43:21.420Z,6.87
2018-08-16T01:45:49.704Z,8.07
2018-08-16T01:48:17.978Z,6.80
2018-08-16T01:50:46.321Z,7.93
2018-08-16T01:53:14.530Z,7.63
2018-08-16T01:55:42.782Z,7.77
2018-08-16T01:58:11.030Z,6.73
2018-08-16T02:00:39.965Z,7.50
2018-08-16T02:03:08.656Z,7.53
2018-08-16T02:05:37.473Z,7.43
2018-08-16T02:08:05.941Z,7.90
2018-08-16T02:10:35.951Z,8.20
2018-08-16T02:13:04.426Z,7.33
2018-08-16T02:15:32.696Z,7.27
2018-08-16T02:18:01.284Z,7.83
2018-08-16T02:20:29.567Z,8.10
2018-08-16T02:22:57.831Z,7.60
2018-08-16T02:25:26.107Z,9.07
2018-08-16T02:27:54.427Z,8.07
2018-08-16T02:30:22.688Z,9.40
2018-08-16T02:32:50.991Z,7.50
2018-08-16T02:35:19.296Z,8.43
2018-08-16T02:37:47.608Z,7.83
2018-08-16T02:40:15.854Z,8.33
2018-08-16T02:42:44.331Z,8.13
2018-08-16T02:45:12.799Z,7.80
2018-08-16T02:47:41.297Z,8.37
2018-08-16T02:50:09.591Z,9.10
2018-08-16T02:52:37.875Z,8.70
2018-08-16T02:55:06.760Z,7.80
2018-08-16T02:57:35.033Z,8.57
2018-08-16T03:00:03.330Z,8.13
2018-08-16T03:02:31.580Z,7.60
2018-08-16T03:05:00.022Z,8.23
2018-08-16T03:07:28.838Z,8.00
2018-08-16T03:09:57.137Z,7.90
2018-08-16T03:12:25.387Z,7.80
2018-08-16T03:14:53.656Z,7.87
2018-08-16T03:17:21.934Z,8.30
2018-08-16T03:19:50.485Z,8.27
2018-08-16T03:22:18.739Z,8.90
2018-08-16T03:24:47.022Z,7.90
2018-08-16T03:27:15.331Z,8.20
2018-08-16T03:29:43.616Z,8.07
2018-08-16T03:32:11.911Z,7.97
2018-08-16T03:34:40.232Z,8.20
2018-08-16T03:37:08.494Z,8.37
2018-08-16T03:39:36.793Z,8.33
2018-08-16T03:42:05.037Z,8.00
2018-08-16T03:44:33.331Z,7.70
2018-08-16T03:47:01.610Z,7.90
2018-08-16T03:49:29.886Z,8.50
2018-08-16T03:51:58.171Z,7.47
2018-08-16T03:54:26.483Z,8.33
2018-08-16T03:56:54.740Z,8.90
2018-08-16T03:59:23.025Z,8.50
2018-08-16T04:01:51.293Z,7.10
2018-08-16T04:04:19.696Z,7.47
2018-08-16T04:06:48.018Z,8.17
2018-08-16T04:09:16.255Z,6.93
2018-08-16T04:11:44.630Z,7.07
2018-08-16T04:14:14.478Z,8.03
2018-08-16T04:16:42.747Z,8.00
2018-08-16T04:19:12.808Z,7.37
2018-08-16T04:21:41.318Z,6.90
2018-08-16T04:24:09.586Z,7.43
2018-08-16T04:26:37.907Z,7.20
2018-08-16T04:29:06.208Z,7.70
2018-08-16T04:31:34.571Z,7.17
2018-08-16T04:34:02.865Z,7.30
2018-08-16T04:36:31.131Z,8.67
2018-08-16T04:38:59.440Z,7.63
2018-08-16T04:41:27.804Z,8.30
2018-08-16T04:43:56.025Z,7.70
2018-08-16T04:46:24.374Z,7.50
2018-08-16T04:48:52.962Z,7.70
2018-08-16T04:51:21.242Z,7.63
2018-08-16T04:53:49.542Z,8.03
2018-08-16T04:56:18.243Z,8.13
2018-08-16T04:58:46.582Z,8.53
2018-08-16T05:01:15.753Z,9.90
2018-08-16T05:03:44.047Z,8.47
2018-08-16T05:06:13.895Z,7.47
2018-08-16T05:08:42.578Z,7.67
2018-08-16T05:11:11.441Z,8.13
2018-08-16T05:13:40.279Z,9.43
2018-08-16T05:16:08.586Z,8.43
2018-08-16T05:18:36.837Z,8.23
2018-08-16T05:21:05.163Z,9.17
2018-08-16T05:23:33.442Z,8.10
2018-08-16T05:26:01.723Z,9.20
2018-08-16T05:28:30.071Z,8.60
2018-08-16T05:30:58.479Z,7.90
2018-08-16T05:33:26.909Z,8.93
2018-08-16T05:35:55.214Z,8.57
2018-08-16T05:38:23.518Z,9.20
2018-08-16T05:40:51.751Z,8.93
2018-08-16T05:43:20.439Z,9.27
2018-08-16T05:45:49.175Z,9.97
2018-08-16T05:48:18.198Z,9.33
2018-08-16T05:50:46.510Z,9.53
2018-08-16T05:53:17.148Z,10.13
2018-08-16T05:55:45.410Z,9.30
2018-08-16T05:58:15.944Z,9.47
2018-08-16T06:00:44.393Z,9.83
2018-08-16T06:03:15.798Z,11.03
2018-08-16T06:05:44.132Z,9.40
2018-08-16T06:08:14.251Z,9.77
2018-08-16T06:10:42.585Z,11.50
2018-08-16T06:13:10.852Z,10.40
2018-08-16T06:15:39.226Z,10.87
2018-08-16T06:18:07.526Z,10.90
2018-08-16T06:20:36.256Z,10.13
2018-08-16T06:23:04.555Z,8.97
2018-08-16T06:25:32.902Z,9.23
2018-08-16T06:28:01.216Z,10.63
2018-08-16T06:30:29.599Z,10.20
2018-08-16T06:32:57.986Z,9.17
2018-08-16T06:35:26.601Z,9.27
2018-08-16T06:37:55.099Z,10.30
2018-08-16T06:40:23.488Z,10.10
2018-08-16T06:42:52.074Z,9.70
2018-08-16T06:45:20.916Z,9.60
2018-08-16T06:47:49.348Z,9.20
2018-08-16T06:50:18.919Z,9.03
2018-08-16T06:52:48.044Z,8.90
2018-08-16T06:55:17.805Z,10.23
2018-08-16T06:57:46.647Z,9.37
2018-08-16T07:00:15.363Z,8.90
2018-08-16T07:02:44.094Z,9.20
2018-08-16T07:05:12.604Z,9.60
2018-08-16T07:07:41.121Z,8.83
2018-08-16T07:10:11.146Z,10.40
2018-08-16T07:12:39.837Z,9.40
2018-08-16T07:15:11.926Z,9.33
2018-08-16T07:17:40.559Z,9.27
2018-08-16T07:20:09.637Z,8.53
2018-08-16T07:22:38.155Z,10.30
2018-08-16T07:25:07.768Z,9.13
2018-08-16T07:27:36.332Z,8.50
2018-08-16T07:30:06.355Z,10.90
2018-08-16T07:32:34.673Z,11.20
2018-08-16T07:35:03.131Z,11.20
2018-08-16T07:37:32.189Z,11.80
2018-08-16T07:40:06.373Z,10.80
2018-08-16T07:42:36.812Z,9.87
2018-08-16T07:45:07.592Z,10.40
2018-08-16T07:47:36.298Z,12.27
2018-08-16T07:50:06.251Z,11.60
2018-08-16T07:52:34.683Z,10.20
2018-08-16T07:55:03.545Z,12.47
2018-08-16T08:10:48.419Z,10.63
2018-08-16T08:13:17.160Z,10.07
2018-08-16T08:15:46.118Z,10.53
2018-08-16T08:18:14.637Z,9.97
2018-08-16T08:20:42.984Z,10.70
2018-08-16T08:23:11.661Z,10.00
2018-08-16T08:25:40.132Z,9.23
2018-08-16T08:28:08.711Z,10.73
2018-08-16T08:30:37.255Z,10.30
2018-08-16T08:33:05.797Z,10.63
2018-08-16T08:35:34.172Z,10.60
2018-08-16T08:38:21.162Z,9.97
2018-08-16T08:40:49.727Z,9.03
2018-08-16T08:43:30.087Z,8.87
2018-08-16T08:45:58.615Z,8.50
2018-08-16T08:48:27.096Z,10.43
2018-08-16T08:50:56.475Z,10.60
2018-08-16T08:55:38.868Z,9.77
2018-08-16T08:58:18.574Z,7.50
2018-08-16T09:00:47.067Z,8.03
2018-08-16T09:03:15.547Z,7.43
2018-08-16T09:05:43.841Z,9.10
2018-08-16T09:08:12.804Z,8.47
2018-08-16T09:10:53.113Z,8.37
2018-08-16T09:13:33.964Z,9.03
2018-08-16T09:16:04.500Z,8.20
2018-08-16T09:18:35.043Z,7.63
2018-08-16T09:21:03.456Z,10.10
2018-08-16T09:23:32.117Z,8.53
2018-08-16T09:26:00.823Z,7.40
2018-08-16T09:28:29.240Z,7.83
2018-08-16T09:31:08.835Z,7.10
2018-08-16T09:33:48.451Z,7.63
2018-08-16T09:36:17.232Z,9.57
2018-08-16T09:38:46.049Z,9.03
2018-08-16T09:41:14.900Z,9.00
2018-08-16T09:43:43.364Z,9.80
2018-08-16T09:47:21.503Z,8.70
2018-08-16T09:49:51.103Z,8.50
2018-08-16T09:52:21.090Z,9.03
2018-08-16T09:54:54.829Z,8.90
2018-08-16T09:57:23.314Z,8.10
2018-08-16T09:59:52.236Z,7.30
2018-08-16T10:02:20.673Z,8.03
2018-08-16T10:04:49.108Z,8.23
2018-08-16T10:07:17.963Z,8.17
2018-08-16T10:09:46.305Z,7.97
2018-08-16T10:12:15.080Z,8.40
2018-08-16T10:14:43.602Z,8.60
2018-08-16T10:17:12.010Z,8.07
2018-08-16T10:19:40.943Z,6.83
2018-08-16T10:22:09.662Z,8.23
2018-08-16T10:24:38.532Z,8.17
2018-08-16T10:27:07.113Z,8.40
2018-08-16T10:29:35.569Z,8.00
2018-08-16T10:32:03.952Z,8.10
2018-08-16T10:34:33.125Z,7.90
2018-08-16T10:37:01.608Z,8.90
2018-08-16T10:39:30.596Z,9.00
2018-08-16T10:41:59.295Z,7.20
2018-08-16T10:44:28.193Z,6.57
2018-08-16T10:46:56.882Z,7.30
2018-08-16T10:49:25.601Z,7.97
2018-08-16T10:51:54.364Z,7.90
2018-08-16T10:54:23.240Z,7.50
2018-08-16T10:56:51.749Z,6.73
2018-08-16T10:59:20.385Z,6.23
2018-08-16T11:01:48.890Z,6.93
2018-08-16T11:04:17.443Z,7.33
2018-08-16T11:06:45.773Z,7.10
2018-08-16T11:09:14.083Z,8.20
2018-08-16T11:11:42.381Z,6.77
2018-08-16T11:14:10.766Z,7.10
2018-08-16T11:16:39.110Z,7.93
2018-08-16T11:19:07.888Z,6.40
2018-08-16T11:21:39.292Z,7.60
2018-08-16T11:24:10.512Z,7.03
2018-08-16T11:26:39.220Z,7.43
2018-08-16T11:29:08.151Z,7.67
2018-08-16T11:34:18.520Z,7.57
2018-08-16T11:36:47.219Z,6.77
2018-08-16T11:39:16.263Z,7.33
2018-08-16T11:41:44.912Z,8.47
2018-08-16T11:44:13.488Z,7.90
2018-08-16T11:46:41.968Z,7.93
2018-08-16T11:49:10.218Z,7.00
2018-08-16T11:51:39.563Z,6.93
2018-08-16T11:54:08.941Z,7.17
2018-08-16T11:56:37.376Z,8.47
2018-08-16T11:59:05.888Z,7.07
2018-08-16T12:01:34.367Z,7.77
2018-08-16T12:04:02.836Z,6.90
2018-08-16T12:06:31.223Z,7.93
2018-08-16T12:08:59.862Z,8.57
2018-08-16T12:11:28.232Z,7.60
2018-08-16T12:13:56.757Z,7.73
2018-08-16T12:16:25.556Z,8.03
2018-08-16T12:18:53.972Z,7.80
2018-08-16T12:21:22.571Z,7.40
2018-08-16T12:23:51.159Z,6.47
2018-08-16T12:26:19.483Z,7.00
2018-08-16T12:28:47.968Z,7.27
2018-08-16T12:31:16.608Z,6.57
2018-08-16T12:33:45.180Z,5.83
2018-08-16T12:36:13.784Z,6.60
2018-08-16T12:38:42.341Z,6.50
2018-08-16T12:41:12.905Z,6.93
2018-08-16T12:43:41.689Z,6.57
2018-08-16T12:46:10.254Z,6.30
2018-08-16T12:48:38.559Z,6.50
2018-08-16T12:51:07.086Z,6.43
2018-08-16T12:53:35.426Z,6.40
2018-08-16T12:56:03.658Z,6.20
2018-08-16T12:58:31.954Z,6.70
2018-08-16T13:01:00.240Z,6.50
2018-08-16T13:03:28.505Z,5.77
2018-08-16T13:05:56.806Z,6.43
2018-08-16T13:08:25.208Z,6.83
2018-08-16T13:10:53.502Z,6.10
2018-08-16T13:13:21.830Z,6.80
2018-08-16T13:15:50.398Z,7.57
2018-08-16T13:18:18.657Z,7.37
2018-08-16T13:20:48.190Z,5.87
2018-08-16T13:23:17.495Z,6.10
2018-08-16T13:25:45.836Z,6.73
2018-08-16T13:28:15.202Z,7.03
2018-08-16T13:30:43.536Z,6.20
2018-08-16T13:33:12.107Z,5.87
2018-08-16T13:35:42.432Z,6.10
2018-08-16T13:38:10.705Z,6.17
2018-08-16T13:40:39.018Z,6.37
2018-08-16T13:43:07.417Z,6.63
2018-08-16T13:45:35.799Z,6.17
2018-08-16T13:48:04.427Z,6.80
2018-08-16T13:50:32.857Z,6.50
2018-08-16T13:53:01.102Z,5.83
2018-08-16T13:55:29.406Z,6.50
2018-08-16T13:57:57.687Z,5.57
2018-08-16T14:00:25.929Z,6.03
2018-08-16T14:02:54.194Z,5.57
2018-08-16T14:05:22.452Z,6.07
2018-08-16T14:07:50.708Z,5.70
2018-08-16T14:10:19.047Z,5.63
2018-08-16T14:12:47.699Z,5.60
2018-08-16T14:15:15.973Z,5.97
2018-08-16T14:17:44.255Z,6.87
2018-08-16T14:20:12.595Z,5.50
2018-08-16T14:22:40.874Z,5.87
2018-08-16T14:25:09.138Z,6.00
2018-08-16T14:27:37.386Z,6.10
2018-08-16T14:30:06.549Z,5.07
2018-08-16T14:32:34.858Z,5.53
2018-08-16T14:35:03.163Z,5.80
2018-08-16T14:37:31.443Z,5.60
2018-08-16T14:39:59.694Z,5.53
2018-08-16T14:42:27.990Z,5.53
2018-08-16T14:44:56.507Z,5.67
2018-08-16T14:47:25.073Z,5.57
2018-08-16T14:49:53.673Z,5.90
2018-08-16T14:52:21.923Z,5.40
2018-08-16T14:54:51.543Z,5.80
2018-08-16T14:57:19.957Z,5.63
2018-08-16T14:59:48.319Z,6.20
2018-08-16T15:02:16.548Z,5.23
2018-08-16T15:04:44.893Z,5.90
2018-08-16T15:07:13.146Z,5.60
2018-08-16T15:09:41.427Z,6.63
2018-08-16T15:12:09.797Z,5.37
2018-08-16T15:14:38.166Z,5.67
2018-08-16T15:17:06.442Z,5.70
2018-08-16T15:19:34.808Z,6.40
2018-08-16T15:22:03.115Z,6.10
2018-08-16T15:27:53.692Z,6.20
2018-08-16T15:30:21.942Z,5.53
2018-08-16T15:32:50.246Z,5.60
2018-08-16T15:35:18.469Z,6.57
2018-08-16T15:37:46.774Z,6.10
2018-08-16T15:40:15.255Z,6.47
2018-08-16T15:42:43.491Z,5.57
2018-08-16T15:45:12.876Z,5.97
2018-08-16T15:47:41.109Z,6.60
2018-08-16T15:50:10.842Z,5.30
2018-08-16T15:52:39.482Z,6.20
2018-08-16T15:55:07.737Z,5.67
2018-08-16T15:57:36.217Z,6.67
2018-08-16T16:00:05.322Z,6.73
2018-08-16T16:02:33.539Z,5.83
2018-08-16T16:05:01.775Z,5.80
2018-08-16T16:07:30.054Z,6.13
2018-08-16T16:09:58.342Z,6.47
2018-08-16T16:12:26.594Z,6.97
2018-08-16T16:14:54.869Z,6.37
2018-08-16T16:17:23.280Z,6.80
2018-08-16T16:19:51.468Z,6.63
2018-08-16T16:22:19.785Z,7.10
2018-08-16T16:24:48.490Z,7.07
2018-08-16T16:27:17.281Z,6.13
2018-08-16T16:29:45.585Z,6.90
2018-08-16T16:32:14.369Z,7.47
2018-08-16T16:34:42.738Z,7.30
2018-08-16T16:37:11.719Z,7.90
2018-08-16T16:39:40.483Z,7.70
2018-08-16T16:42:08.882Z,6.53
2018-08-16T16:44:37.190Z,6.70
2018-08-16T16:47:06.150Z,7.37
2018-08-16T16:49:34.466Z,7.10
2018-08-16T16:52:02.775Z,7.93
2018-08-16T16:54:31.086Z,6.93
2018-08-16T16:56:59.367Z,7.03
2018-08-16T16:59:27.703Z,7.20
2018-08-16T17:01:56.021Z,6.90
2018-08-16T17:04:25.137Z,7.47
2018-08-16T17:06:53.482Z,7.77
2018-08-16T17:09:24.866Z,7.80
2018-08-16T17:11:53.321Z,7.70
2018-08-16T17:14:21.614Z,9.57
2018-08-16T17:16:50.230Z,8.23
2018-08-16T17:19:18.828Z,8.70
2018-08-16T17:21:48.908Z,7.83
2018-08-16T17:24:19.140Z,8.10
2018-08-16T17:26:47.493Z,8.67
2018-08-16T17:29:16.316Z,8.80
2018-08-16T17:31:44.594Z,9.07
2018-08-16T17:34:12.947Z,8.30
2018-08-16T17:36:57.402Z,9.00
2018-08-16T17:39:25.903Z,8.90
2018-08-16T17:41:54.159Z,8.10
2018-08-16T17:44:22.491Z,9.20
2018-08-16T17:46:50.794Z,7.90
2018-08-16T17:49:34.904Z,8.37
2018-08-16T17:52:03.360Z,8.33
2018-08-16T17:54:31.542Z,8.90
2018-08-16T17:56:59.879Z,9.30
2018-08-16T17:59:28.210Z,8.90
2018-08-16T18:01:56.515Z,9.70
2018-08-16T18:04:24.862Z,8.97
2018-08-16T18:06:53.270Z,8.70
2018-08-16T18:09:22.169Z,10.13
2018-08-16T18:12:00.833Z,9.43
2018-08-16T18:14:29.136Z,9.50
2018-08-16T18:16:57.411Z,10.47
2018-08-16T18:19:25.712Z,10.33
2018-08-16T18:21:54.207Z,10.20
2018-08-16T18:24:24.352Z,8.57
2018-08-16T18:26:52.968Z,9.17
2018-08-16T18:29:21.810Z,8.43
2018-08-16T18:31:52.606Z,9.00
2018-08-16T18:34:20.894Z,8.40
2018-08-16T18:36:49.319Z,9.27
2018-08-16T18:39:17.539Z,9.30
2018-08-16T18:41:46.003Z,9.47
2018-08-16T18:44:14.282Z,10.60
2018-08-16T18:46:42.553Z,9.83
2018-08-16T18:49:10.858Z,10.27
2018-08-16T18:51:39.121Z,10.00
2018-08-16T18:54:07.382Z,10.20
2018-08-16T18:56:35.690Z,10.33
2018-08-16T18:59:04.185Z,10.07
2018-08-16T19:01:32.685Z,10.43
2018-08-16T19:04:00.972Z,10.10
2018-08-16T19:06:29.283Z,10.20
2018-08-16T19:08:57.933Z,10.07
2018-08-16T19:11:26.163Z,9.83
2018-08-16T19:13:54.983Z,11.27
2018-08-16T19:16:23.629Z,10.77
2018-08-16T19:19:04.733Z,11.17
2018-08-16T19:21:40.479Z,10.07
2018-08-16T19:24:13.553Z,13.87
2018-08-16T19:26:45.764Z,10.87
2018-08-16T19:29:14.784Z,12.00
2018-08-16T19:31:43.573Z,11.43
2018-08-16T19:34:12.323Z,10.87
2018-08-16T19:36:42.181Z,9.77
2018-08-16T19:39:12.624Z,11.10
2018-08-16T19:41:41.316Z,10.17
2018-08-16T19:44:10.724Z,9.70
2018-08-16T19:46:39.302Z,11.00
2018-08-16T19:49:08.238Z,11.20
2018-08-16T19:51:36.607Z,11.00
2018-08-16T19:54:04.901Z,11.33
2018-08-16T19:56:33.567Z,12.60
2018-08-16T19:59:02.038Z,12.63
2018-08-16T20:01:30.523Z,11.80
2018-08-16T20:03:59.543Z,11.10
2018-08-16T20:06:27.960Z,11.80
2018-08-16T20:08:56.280Z,11.43
2018-08-16T20:11:24.848Z,11.50
2018-08-16T20:13:53.298Z,13.90
2018-08-16T20:16:21.571Z,13.07
2018-08-16T20:18:50.053Z,11.40
2018-08-16T20:21:18.671Z,11.93
2018-08-16T20:23:47.636Z,12.97
2018-08-16T20:26:16.230Z,11.87
2018-08-16T20:28:45.588Z,12.97
2018-08-16T20:31:14.397Z,12.37
2018-08-16T20:33:42.963Z,11.43
2018-08-16T20:36:11.853Z,12.70
2018-08-16T20:38:40.529Z,11.80
2018-08-16T20:41:10.857Z,12.93
2018-08-16T20:43:39.547Z,12.67
2018-08-16T20:46:08.309Z,11.20
2018-08-16T20:48:37.131Z,12.60
2018-08-16T20:51:05.946Z,13.30
2018-08-16T20:53:39.653Z,11.80
2018-08-16T20:56:09.373Z,11.33
2018-08-16T20:58:38.791Z,11.50
2018-08-16T21:01:08.828Z,13.80
2018-08-16T21:03:37.889Z,11.70
2018-08-16T21:06:07.748Z,12.27
2018-08-16T21:08:36.435Z,11.53
2018-08-16T21:11:05.336Z,13.90
2018-08-16T21:13:34.222Z,13.07
2018-08-16T21:16:04.871Z,13.83
2018-08-16T21:18:34.616Z,11.77
2018-08-16T21:21:03.235Z,13.37
2018-08-16T21:23:35.392Z,14.40
2018-08-16T21:26:03.800Z,12.77
2018-08-16T21:28:32.377Z,13.60
2018-08-16T21:31:01.663Z,12.80
2018-08-16T21:33:31.420Z,12.63
2018-08-16T21:36:00.500Z,13.87
2018-08-16T21:38:33.061Z,12.17
2018-08-16T21:41:01.710Z,13.17
2018-08-16T21:43:31.387Z,12.43
2018-08-16T21:46:00.130Z,14.70
2018-08-16T21:48:30.683Z,12.40
2018-08-16T21:50:59.509Z,12.10
2018-08-16T21:53:28.249Z,12.73
2018-08-16T21:55:58.503Z,12.93
2018-08-16T21:58:27.214Z,13.87
2018-08-16T22:00:58.688Z,12.47
2018-08-16T22:03:28.673Z,11.87
2018-08-16T22:06:02.832Z,12.17
2018-08-16T22:08:52.336Z,13.00
2018-08-16T22:11:23.970Z,13.73
2018-08-16T22:13:54.562Z,12.80
2018-08-16T22:16:24.090Z,12.43
2018-08-16T22:18:52.798Z,13.23
2018-08-16T22:21:21.621Z,12.77
2018-08-16T22:23:50.110Z,14.10
2018-08-16T22:26:19.471Z,11.70
2018-08-16T22:28:48.450Z,12.33
2018-08-16T22:31:17.161Z,11.50
2018-08-16T22:33:46.012Z,13.50
2018-08-16T22:36:14.709Z,14.50
2018-08-16T22:38:44.981Z,12.73
2018-08-16T22:41:13.915Z,13.70
2018-08-16T22:43:42.921Z,14.80
2018-08-16T22:46:12.455Z,14.27
2018-08-16T22:48:41.419Z,14.50
2018-08-16T22:51:09.967Z,14.13
2018-08-16T22:53:38.649Z,13.07
2018-08-16T22:56:08.892Z,12.90
2018-08-16T22:58:39.135Z,13.40
2018-08-16T23:01:08.114Z,12.83
2018-08-16T23:03:37.482Z,12.90
2018-08-16T23:06:06.748Z,13.40
2018-08-16T23:08:36.035Z,13.53
2018-08-16T23:11:06.728Z,12.10
2018-08-16T23:13:35.335Z,13.43
2018-08-16T23:16:03.962Z,12.97
2018-08-16T23:18:32.831Z,13.57
2018-08-16T23:21:02.049Z,12.83
2018-08-16T23:23:31.461Z,14.10
2018-08-16T23:26:00.151Z,12.70
2018-08-16T23:28:29.648Z,13.23
2018-08-16T23:30:58.783Z,13.23
2018-08-16T23:33:28.590Z,12.80
2018-08-16T23:35:57.462Z,13.80
2018-08-16T23:38:25.862Z,13.60
2018-08-16T23:40:54.205Z,13.07
2018-08-16T23:43:22.570Z,13.60
2018-08-16T23:45:52.194Z,13.30
2018-08-16T23:48:29.017Z,13.97
2018-08-16T23:50:57.401Z,13.80
2018-08-16T23:53:26.167Z,12.67
2018-08-16T23:55:54.570Z,12.37
2018-08-16T23:58:22.869Z,14.20
